sensor_id;sensor_type;location;lat;lon;timestamp;temperature;humidity
12446;DHT22;6287;50.984;7.022;2023-10-13T00:00:38;17.10;99.90
12446;DHT22;6287;50.984;7.022;2023-10-13T00:03:08;17.00;99.90
12446;DHT22;6287;50.984;7.022;2023-10-13T00:05:41;17.10;99.90
12446;DHT22;6287;50.984;7.022;2023-10-13T00:08:08;17.00;99.90
12446;DHT22;6287;50.984;7.022;2023-10-13T00:10:34;17.10;99.90
12446;DHT22;6287;50.984;7.022;2023-10-13T00:13:03;17.10;99.90
12446;DHT22;6287;50.984;7.022;2023-10-13T00:15:39;17.10;99.90
12446;DHT22;6287;50.984;7.022;2023-10-13T00:18:14;17.10;99.90
12446;DHT22;6287;50.984;7.022;2023-10-13T00:20:41;17.10;99.90
12446;DHT22;6287;50.984;7.022;2023-10-13T00:23:13;17.10;99.90
12446;DHT22;6287;50.984;7.022;2023-10-13T00:25:39;17.10;99.90
12446;DHT22;6287;50.984;7.022;2023-10-13T00:28:16;17.10;99.90
12446;DHT22;6287;50.984;7.022;2023-10-13T00:30:52;17.10;99.90
12446;DHT22;6287;50.984;7.022;2023-10-13T00:33:24;17.10;99.90
12446;DHT22;6287;50.984;7.022;2023-10-13T00:35:51;17.10;99.90
12446;DHT22;6287;50.984;7.022;2023-10-13T00:38:24;17.10;99.90
12446;DHT22;6287;50.984;7.022;2023-10-13T00:40:49;17.10;99.90
12446;DHT22;6287;50.984;7.022;2023-10-13T00:43:22;17.10;99.90
12446;DHT22;6287;50.984;7.022;2023-10-13T00:48:29;17.10;99.90
12446;DHT22;6287;50.984;7.022;2023-10-13T00:51:07;17.10;99.90
12446;DHT22;6287;50.984;7.022;2023-10-13T00:53:44;17.10;99.90
12446;DHT22;6287;50.984;7.022;2023-10-13T00:56:13;17.10;99.90
12446;DHT22;6287;50.984;7.022;2023-10-13T00:58:47;17.10;99.90
12446;DHT22;6287;50.984;7.022;2023-10-13T01:01:16;17.20;99.90
12446;DHT22;6287;50.984;7.022;2023-10-13T01:06:21;17.10;99.90
12446;DHT22;6287;50.984;7.022;2023-10-13T01:08:58;17.10;99.90
12446;DHT22;6287;50.984;7.022;2023-10-13T01:11:25;17.10;99.90
12446;DHT22;6287;50.984;7.022;2023-10-13T01:13:55;17.10;99.90
12446;DHT22;6287;50.984;7.022;2023-10-13T01:16:22;17.10;99.90
12446;DHT22;6287;50.984;7.022;2023-10-13T01:18:52;17.10;99.90
12446;DHT22;6287;50.984;7.022;2023-10-13T01:21:18;17.10;99.90
12446;DHT22;6287;50.984;7.022;2023-10-13T01:23:54;17.10;99.90
12446;DHT22;6287;50.984;7.022;2023-10-13T01:26:20;17.10;99.90
12446;DHT22;6287;50.984;7.022;2023-10-13T01:28:57;17.10;99.90
12446;DHT22;6287;50.984;7.022;2023-10-13T01:31:23;17.10;99.90
12446;DHT22;6287;50.984;7.022;2023-10-13T01:33:56;17.20;99.90
12446;DHT22;6287;50.984;7.022;2023-10-13T01:36:26;17.10;99.90
12446;DHT22;6287;50.984;7.022;2023-10-13T01:38:52;17.10;99.90
12446;DHT22;6287;50.984;7.022;2023-10-13T01:43:54;17.20;99.90
12446;DHT22;6287;50.984;7.022;2023-10-13T01:46:22;17.20;99.90
12446;DHT22;6287;50.984;7.022;2023-10-13T01:48:48;17.20;99.90
12446;DHT22;6287;50.984;7.022;2023-10-13T01:51:22;17.10;99.90
12446;DHT22;6287;50.984;7.022;2023-10-13T01:53:53;17.20;99.90
12446;DHT22;6287;50.984;7.022;2023-10-13T01:56:22;17.20;99.90
12446;DHT22;6287;50.984;7.022;2023-10-13T01:58:55;17.20;99.90
12446;DHT22;6287;50.984;7.022;2023-10-13T02:01:32;17.10;99.90
12446;DHT22;6287;50.984;7.022;2023-10-13T02:03:58;17.20;99.90
12446;DHT22;6287;50.984;7.022;2023-10-13T02:06:32;17.20;99.90
12446;DHT22;6287;50.984;7.022;2023-10-13T02:09:05;17.10;99.90
12446;DHT22;6287;50.984;7.022;2023-10-13T02:12:01;17.20;99.90
12446;DHT22;6287;50.984;7.022;2023-10-13T02:14:28;17.20;99.90
12446;DHT22;6287;50.984;7.022;2023-10-13T02:16:58;17.20;99.90
12446;DHT22;6287;50.984;7.022;2023-10-13T02:19:44;17.20;99.90
12446;DHT22;6287;50.984;7.022;2023-10-13T02:22:11;17.20;99.90
12446;DHT22;6287;50.984;7.022;2023-10-13T02:24:57;17.20;99.90
12446;DHT22;6287;50.984;7.022;2023-10-13T02:27:32;17.20;99.90
12446;DHT22;6287;50.984;7.022;2023-10-13T02:30:09;17.20;99.90
12446;DHT22;6287;50.984;7.022;2023-10-13T02:32:40;17.20;99.90
12446;DHT22;6287;50.984;7.022;2023-10-13T02:35:11;17.20;99.90
12446;DHT22;6287;50.984;7.022;2023-10-13T02:37:43;17.20;99.90
12446;DHT22;6287;50.984;7.022;2023-10-13T02:40:12;17.20;99.90
12446;DHT22;6287;50.984;7.022;2023-10-13T02:42:40;17.20;99.90
12446;DHT22;6287;50.984;7.022;2023-10-13T02:45:07;17.20;99.90
12446;DHT22;6287;50.984;7.022;2023-10-13T02:47:37;17.20;99.90
12446;DHT22;6287;50.984;7.022;2023-10-13T02:50:03;17.20;99.90
12446;DHT22;6287;50.984;7.022;2023-10-13T02:52:36;17.20;99.90
12446;DHT22;6287;50.984;7.022;2023-10-13T02:55:03;17.20;99.90
12446;DHT22;6287;50.984;7.022;2023-10-13T02:57:34;17.20;99.90
12446;DHT22;6287;50.984;7.022;2023-10-13T03:00:02;17.20;99.90
12446;DHT22;6287;50.984;7.022;2023-10-13T03:02:44;17.20;99.90
12446;DHT22;6287;50.984;7.022;2023-10-13T03:05:23;17.20;99.90
12446;DHT22;6287;50.984;7.022;2023-10-13T03:07:51;17.20;99.90
12446;DHT22;6287;50.984;7.022;2023-10-13T03:10:17;17.20;99.90
12446;DHT22;6287;50.984;7.022;2023-10-13T03:12:47;17.20;99.90
12446;DHT22;6287;50.984;7.022;2023-10-13T03:15:16;17.20;99.90
12446;DHT22;6287;50.984;7.022;2023-10-13T03:17:43;17.20;99.90
12446;DHT22;6287;50.984;7.022;2023-10-13T03:20:13;17.20;99.90
12446;DHT22;6287;50.984;7.022;2023-10-13T03:22:41;17.20;99.90
12446;DHT22;6287;50.984;7.022;2023-10-13T03:25:13;17.20;99.90
12446;DHT22;6287;50.984;7.022;2023-10-13T03:27:49;17.20;99.90
12446;DHT22;6287;50.984;7.022;2023-10-13T03:30:18;17.20;99.90
12446;DHT22;6287;50.984;7.022;2023-10-13T03:32:45;17.20;99.90
12446;DHT22;6287;50.984;7.022;2023-10-13T03:35:19;17.20;99.90
12446;DHT22;6287;50.984;7.022;2023-10-13T03:37:56;17.20;99.90
12446;DHT22;6287;50.984;7.022;2023-10-13T03:40:24;17.30;99.90
12446;DHT22;6287;50.984;7.022;2023-10-13T03:42:57;17.20;99.90
12446;DHT22;6287;50.984;7.022;2023-10-13T03:45:40;17.20;99.90
12446;DHT22;6287;50.984;7.022;2023-10-13T03:48:09;17.30;99.90
12446;DHT22;6287;50.984;7.022;2023-10-13T03:50:41;17.20;99.90
12446;DHT22;6287;50.984;7.022;2023-10-13T03:53:14;17.20;99.90
12446;DHT22;6287;50.984;7.022;2023-10-13T03:55:40;17.30;99.90
12446;DHT22;6287;50.984;7.022;2023-10-13T03:58:13;17.30;99.90
12446;DHT22;6287;50.984;7.022;2023-10-13T04:00:39;17.30;99.90
12446;DHT22;6287;50.984;7.022;2023-10-13T04:03:08;17.30;99.90
12446;DHT22;6287;50.984;7.022;2023-10-13T04:05:42;17.30;99.90
12446;DHT22;6287;50.984;7.022;2023-10-13T04:08:08;17.30;99.90
12446;DHT22;6287;50.984;7.022;2023-10-13T04:11:03;17.30;99.90
12446;DHT22;6287;50.984;7.022;2023-10-13T04:13:47;17.30;99.90
12446;DHT22;6287;50.984;7.022;2023-10-13T04:16:35;17.20;99.90
12446;DHT22;6287;50.984;7.022;2023-10-13T04:19:02;17.30;99.90
12446;DHT22;6287;50.984;7.022;2023-10-13T04:21:27;17.30;99.90
12446;DHT22;6287;50.984;7.022;2023-10-13T04:24:11;17.30;99.90
12446;DHT22;6287;50.984;7.022;2023-10-13T04:26:50;17.30;99.90
12446;DHT22;6287;50.984;7.022;2023-10-13T04:29:44;17.30;99.90
12446;DHT22;6287;50.984;7.022;2023-10-13T04:32:22;17.40;99.90
12446;DHT22;6287;50.984;7.022;2023-10-13T04:35:00;17.40;99.90
12446;DHT22;6287;50.984;7.022;2023-10-13T04:37:40;17.30;99.90
12446;DHT22;6287;50.984;7.022;2023-10-13T04:40:20;17.30;99.90
12446;DHT22;6287;50.984;7.022;2023-10-13T04:42:52;17.40;99.90
12446;DHT22;6287;50.984;7.022;2023-10-13T04:45:32;17.40;99.90
12446;DHT22;6287;50.984;7.022;2023-10-13T04:48:03;17.30;99.90
12446;DHT22;6287;50.984;7.022;2023-10-13T04:50:43;17.40;99.90
12446;DHT22;6287;50.984;7.022;2023-10-13T04:53:17;17.40;99.90
12446;DHT22;6287;50.984;7.022;2023-10-13T04:56:01;17.40;99.90
12446;DHT22;6287;50.984;7.022;2023-10-13T04:58:34;17.40;99.90
12446;DHT22;6287;50.984;7.022;2023-10-13T05:01:03;17.40;99.90
12446;DHT22;6287;50.984;7.022;2023-10-13T05:03:47;17.40;99.90
12446;DHT22;6287;50.984;7.022;2023-10-13T05:06:32;17.40;99.90
12446;DHT22;6287;50.984;7.022;2023-10-13T05:09:13;17.30;99.90
12446;DHT22;6287;50.984;7.022;2023-10-13T05:11:58;17.40;99.90
12446;DHT22;6287;50.984;7.022;2023-10-13T05:14:42;17.40;99.90
12446;DHT22;6287;50.984;7.022;2023-10-13T05:17:26;17.40;99.90
12446;DHT22;6287;50.984;7.022;2023-10-13T05:20:10;17.40;99.90
12446;DHT22;6287;50.984;7.022;2023-10-13T05:22:59;17.40;99.90
12446;DHT22;6287;50.984;7.022;2023-10-13T05:25:43;17.40;99.90
12446;DHT22;6287;50.984;7.022;2023-10-13T05:28:29;17.40;99.90
12446;DHT22;6287;50.984;7.022;2023-10-13T05:31:13;17.40;99.90
12446;DHT22;6287;50.984;7.022;2023-10-13T05:33:57;17.40;99.90
12446;DHT22;6287;50.984;7.022;2023-10-13T05:36:41;17.40;99.90
12446;DHT22;6287;50.984;7.022;2023-10-13T05:39:25;17.40;99.90
12446;DHT22;6287;50.984;7.022;2023-10-13T05:42:09;17.50;99.90
12446;DHT22;6287;50.984;7.022;2023-10-13T05:44:53;17.40;99.90
12446;DHT22;6287;50.984;7.022;2023-10-13T05:47:37;17.50;99.90
12446;DHT22;6287;50.984;7.022;2023-10-13T05:50:09;17.50;99.90
12446;DHT22;6287;50.984;7.022;2023-10-13T05:52:49;17.50;99.90
12446;DHT22;6287;50.984;7.022;2023-10-13T05:55:29;17.50;99.90
12446;DHT22;6287;50.984;7.022;2023-10-13T05:58:13;17.60;99.90
12446;DHT22;6287;50.984;7.022;2023-10-13T06:00:58;17.60;99.90
12446;DHT22;6287;50.984;7.022;2023-10-13T06:03:42;17.60;99.90
12446;DHT22;6287;50.984;7.022;2023-10-13T06:06:26;17.60;99.90
12446;DHT22;6287;50.984;7.022;2023-10-13T06:09:10;17.60;99.90
12446;DHT22;6287;50.984;7.022;2023-10-13T06:11:54;17.60;99.90
12446;DHT22;6287;50.984;7.022;2023-10-13T06:14:38;17.70;99.90
12446;DHT22;6287;50.984;7.022;2023-10-13T06:17:23;17.70;99.90
12446;DHT22;6287;50.984;7.022;2023-10-13T06:20:07;17.70;99.90
12446;DHT22;6287;50.984;7.022;2023-10-13T06:22:54;17.70;99.90
12446;DHT22;6287;50.984;7.022;2023-10-13T06:25:41;17.80;99.90
12446;DHT22;6287;50.984;7.022;2023-10-13T06:28:27;17.80;99.90
12446;DHT22;6287;50.984;7.022;2023-10-13T06:31:09;17.80;99.90
12446;DHT22;6287;50.984;7.022;2023-10-13T06:33:55;17.90;99.90
12446;DHT22;6287;50.984;7.022;2023-10-13T06:36:23;17.90;99.90
12446;DHT22;6287;50.984;7.022;2023-10-13T06:38:49;17.90;99.90
12446;DHT22;6287;50.984;7.022;2023-10-13T06:41:20;18.00;99.90
12446;DHT22;6287;50.984;7.022;2023-10-13T06:43:55;18.00;99.90
12446;DHT22;6287;50.984;7.022;2023-10-13T06:46:32;18.00;99.90
12446;DHT22;6287;50.984;7.022;2023-10-13T06:49:00;18.00;99.90
12446;DHT22;6287;50.984;7.022;2023-10-13T06:51:30;18.10;99.90
12446;DHT22;6287;50.984;7.022;2023-10-13T06:54:08;18.10;99.90
12446;DHT22;6287;50.984;7.022;2023-10-13T06:56:48;18.20;99.90
12446;DHT22;6287;50.984;7.022;2023-10-13T06:59:18;18.20;99.90
12446;DHT22;6287;50.984;7.022;2023-10-13T07:01:43;18.20;99.90
12446;DHT22;6287;50.984;7.022;2023-10-13T07:04:20;18.20;99.90
12446;DHT22;6287;50.984;7.022;2023-10-13T07:06:47;18.20;99.90
12446;DHT22;6287;50.984;7.022;2023-10-13T07:09:16;18.20;99.90
12446;DHT22;6287;50.984;7.022;2023-10-13T07:12:06;18.20;99.90
12446;DHT22;6287;50.984;7.022;2023-10-13T07:14:35;18.30;99.90
12446;DHT22;6287;50.984;7.022;2023-10-13T07:17:05;18.30;99.90
12446;DHT22;6287;50.984;7.022;2023-10-13T07:19:31;18.30;99.90
12446;DHT22;6287;50.984;7.022;2023-10-13T07:21:58;18.40;99.90
12446;DHT22;6287;50.984;7.022;2023-10-13T07:24:44;18.40;99.90
12446;DHT22;6287;50.984;7.022;2023-10-13T07:27:10;18.40;99.90
12446;DHT22;6287;50.984;7.022;2023-10-13T07:29:36;18.50;99.90
12446;DHT22;6287;50.984;7.022;2023-10-13T07:32:04;18.50;99.90
12446;DHT22;6287;50.984;7.022;2023-10-13T07:34:38;18.50;99.90
12446;DHT22;6287;50.984;7.022;2023-10-13T07:37:04;18.60;99.90
12446;DHT22;6287;50.984;7.022;2023-10-13T07:39:33;18.60;99.90
12446;DHT22;6287;50.984;7.022;2023-10-13T07:41:59;18.60;99.90
12446;DHT22;6287;50.984;7.022;2023-10-13T07:44:35;18.70;99.90
12446;DHT22;6287;50.984;7.022;2023-10-13T07:47:05;18.80;99.90
12446;DHT22;6287;50.984;7.022;2023-10-13T07:49:35;18.80;99.90
12446;DHT22;6287;50.984;7.022;2023-10-13T07:52:11;18.80;99.90
12446;DHT22;6287;50.984;7.022;2023-10-13T07:54:52;18.90;99.90
12446;DHT22;6287;50.984;7.022;2023-10-13T07:57:25;19.00;99.90
12446;DHT22;6287;50.984;7.022;2023-10-13T07:59:57;19.00;99.90
12446;DHT22;6287;50.984;7.022;2023-10-13T08:03:01;19.00;99.90
12446;DHT22;6287;50.984;7.022;2023-10-13T08:05:45;19.10;99.90
12446;DHT22;6287;50.984;7.022;2023-10-13T08:08:29;19.10;99.90
12446;DHT22;6287;50.984;7.022;2023-10-13T08:11:13;19.30;99.90
12446;DHT22;6287;50.984;7.022;2023-10-13T08:13:57;19.40;99.90
12446;DHT22;6287;50.984;7.022;2023-10-13T08:16:36;19.50;99.90
12446;DHT22;6287;50.984;7.022;2023-10-13T08:19:18;19.70;99.90
12446;DHT22;6287;50.984;7.022;2023-10-13T08:21:46;19.80;99.90
12446;DHT22;6287;50.984;7.022;2023-10-13T08:24:17;19.80;99.90
12446;DHT22;6287;50.984;7.022;2023-10-13T08:26:51;19.90;99.90
12446;DHT22;6287;50.984;7.022;2023-10-13T08:29:47;19.90;99.90
12446;DHT22;6287;50.984;7.022;2023-10-13T08:32:31;20.00;99.90
12446;DHT22;6287;50.984;7.022;2023-10-13T08:34:59;20.00;99.90
12446;DHT22;6287;50.984;7.022;2023-10-13T08:37:34;20.00;99.90
12446;DHT22;6287;50.984;7.022;2023-10-13T08:40:13;20.10;99.90
12446;DHT22;6287;50.984;7.022;2023-10-13T08:43:05;20.20;99.90
12446;DHT22;6287;50.984;7.022;2023-10-13T08:45:37;20.20;99.90
12446;DHT22;6287;50.984;7.022;2023-10-13T08:48:03;20.20;99.90
12446;DHT22;6287;50.984;7.022;2023-10-13T08:50:49;20.30;99.90
12446;DHT22;6287;50.984;7.022;2023-10-13T08:55:57;20.50;99.90
12446;DHT22;6287;50.984;7.022;2023-10-13T08:58:45;20.60;99.90
12446;DHT22;6287;50.984;7.022;2023-10-13T09:01:33;20.70;99.90
12446;DHT22;6287;50.984;7.022;2023-10-13T09:04:00;20.90;99.90
12446;DHT22;6287;50.984;7.022;2023-10-13T09:06:56;20.90;99.90
12446;DHT22;6287;50.984;7.022;2023-10-13T09:09:46;21.00;99.90
12446;DHT22;6287;50.984;7.022;2023-10-13T09:12:16;21.00;99.90
12446;DHT22;6287;50.984;7.022;2023-10-13T09:14:58;21.00;99.90
12446;DHT22;6287;50.984;7.022;2023-10-13T09:17:25;21.20;99.90
12446;DHT22;6287;50.984;7.022;2023-10-13T09:20:06;21.30;99.90
12446;DHT22;6287;50.984;7.022;2023-10-13T09:22:48;21.40;99.90
12446;DHT22;6287;50.984;7.022;2023-10-13T09:25:38;21.50;99.90
12446;DHT22;6287;50.984;7.022;2023-10-13T09:28:19;21.60;99.90
12446;DHT22;6287;50.984;7.022;2023-10-13T09:30:48;21.70;99.90
12446;DHT22;6287;50.984;7.022;2023-10-13T09:33:20;21.80;99.90
12446;DHT22;6287;50.984;7.022;2023-10-13T09:35:56;21.90;99.90
12446;DHT22;6287;50.984;7.022;2023-10-13T09:38:30;21.90;99.90
12446;DHT22;6287;50.984;7.022;2023-10-13T09:41:00;22.00;99.90
12446;DHT22;6287;50.984;7.022;2023-10-13T09:43:37;22.20;99.90
12446;DHT22;6287;50.984;7.022;2023-10-13T09:46:07;22.40;99.90
12446;DHT22;6287;50.984;7.022;2023-10-13T09:48:44;22.50;99.90
12446;DHT22;6287;50.984;7.022;2023-10-13T09:51:18;22.70;99.90
12446;DHT22;6287;50.984;7.022;2023-10-13T09:56:31;23.00;99.90
12446;DHT22;6287;50.984;7.022;2023-10-13T09:59:06;23.20;99.90
12446;DHT22;6287;50.984;7.022;2023-10-13T10:01:41;23.30;99.90
12446;DHT22;6287;50.984;7.022;2023-10-13T10:04:16;23.50;99.90
12446;DHT22;6287;50.984;7.022;2023-10-13T10:06:57;23.70;99.90
12446;DHT22;6287;50.984;7.022;2023-10-13T10:09:32;24.00;99.90
12446;DHT22;6287;50.984;7.022;2023-10-13T10:17:24;24.00;99.90
12446;DHT22;6287;50.984;7.022;2023-10-13T10:19:55;23.90;99.90
12446;DHT22;6287;50.984;7.022;2023-10-13T10:22:29;23.80;99.90
12446;DHT22;6287;50.984;7.022;2023-10-13T10:25:03;23.80;99.90
12446;DHT22;6287;50.984;7.022;2023-10-13T10:27:33;23.90;99.90
12446;DHT22;6287;50.984;7.022;2023-10-13T10:30:01;24.00;99.90
12446;DHT22;6287;50.984;7.022;2023-10-13T10:32:38;24.20;99.90
12446;DHT22;6287;50.984;7.022;2023-10-13T10:35:07;24.30;99.90
12446;DHT22;6287;50.984;7.022;2023-10-13T10:37:42;24.50;99.90
12446;DHT22;6287;50.984;7.022;2023-10-13T10:40:17;24.80;99.90
12446;DHT22;6287;50.984;7.022;2023-10-13T10:43:01;25.10;99.90
12446;DHT22;6287;50.984;7.022;2023-10-13T10:45:28;25.20;99.90
12446;DHT22;6287;50.984;7.022;2023-10-13T10:48:00;25.20;99.90
12446;DHT22;6287;50.984;7.022;2023-10-13T10:50:45;25.10;99.90
12446;DHT22;6287;50.984;7.022;2023-10-13T10:53:20;25.00;99.90
12446;DHT22;6287;50.984;7.022;2023-10-13T10:55:47;24.80;99.90
12446;DHT22;6287;50.984;7.022;2023-10-13T10:58:14;24.80;99.90
12446;DHT22;6287;50.984;7.022;2023-10-13T11:01:10;24.60;99.90
12446;DHT22;6287;50.984;7.022;2023-10-13T11:03:37;24.30;99.90
12446;DHT22;6287;50.984;7.022;2023-10-13T11:06:12;24.30;99.90
12446;DHT22;6287;50.984;7.022;2023-10-13T11:08:42;24.20;99.90
12446;DHT22;6287;50.984;7.022;2023-10-13T11:11:28;24.50;99.90
12446;DHT22;6287;50.984;7.022;2023-10-13T11:13:56;24.90;99.90
12446;DHT22;6287;50.984;7.022;2023-10-13T11:16:45;25.30;99.90
12446;DHT22;6287;50.984;7.022;2023-10-13T11:19:18;25.50;99.90
12446;DHT22;6287;50.984;7.022;2023-10-13T11:21:53;25.60;99.90
12446;DHT22;6287;50.984;7.022;2023-10-13T11:24:20;25.40;99.90
12446;DHT22;6287;50.984;7.022;2023-10-13T11:26:50;25.30;99.90
12446;DHT22;6287;50.984;7.022;2023-10-13T11:29:19;25.20;99.90
12446;DHT22;6287;50.984;7.022;2023-10-13T11:31:55;25.00;99.90
12446;DHT22;6287;50.984;7.022;2023-10-13T11:34:24;24.90;99.90
12446;DHT22;6287;50.984;7.022;2023-10-13T11:37:05;24.70;99.90
12446;DHT22;6287;50.984;7.022;2023-10-13T11:39:50;24.60;99.90
12446;DHT22;6287;50.984;7.022;2023-10-13T11:42:20;24.40;99.90
12446;DHT22;6287;50.984;7.022;2023-10-13T11:44:46;24.20;99.90
12446;DHT22;6287;50.984;7.022;2023-10-13T11:47:26;24.20;99.90
12446;DHT22;6287;50.984;7.022;2023-10-13T11:49:58;24.20;99.90
12446;DHT22;6287;50.984;7.022;2023-10-13T11:52:27;24.10;99.90
12446;DHT22;6287;50.984;7.022;2023-10-13T11:54:55;24.20;99.90
12446;DHT22;6287;50.984;7.022;2023-10-13T11:57:21;24.20;99.90
12446;DHT22;6287;50.984;7.022;2023-10-13T11:59:49;24.30;99.90
12446;DHT22;6287;50.984;7.022;2023-10-13T12:02:19;24.40;99.90
12446;DHT22;6287;50.984;7.022;2023-10-13T12:04:51;24.50;99.90
12446;DHT22;6287;50.984;7.022;2023-10-13T12:07:21;24.40;99.90
12446;DHT22;6287;50.984;7.022;2023-10-13T12:10:05;24.40;99.90
12446;DHT22;6287;50.984;7.022;2023-10-13T12:12:40;24.40;99.90
12446;DHT22;6287;50.984;7.022;2023-10-13T12:15:10;24.40;99.90
12446;DHT22;6287;50.984;7.022;2023-10-13T12:17:50;24.20;99.90
12446;DHT22;6287;50.984;7.022;2023-10-13T12:20:23;24.10;99.90
12446;DHT22;6287;50.984;7.022;2023-10-13T12:23:00;24.00;99.90
12446;DHT22;6287;50.984;7.022;2023-10-13T12:25:42;23.90;99.90
12446;DHT22;6287;50.984;7.022;2023-10-13T12:28:25;23.90;99.90
12446;DHT22;6287;50.984;7.022;2023-10-13T12:30:53;23.80;99.90
12446;DHT22;6287;50.984;7.022;2023-10-13T12:33:24;23.80;99.90
12446;DHT22;6287;50.984;7.022;2023-10-13T12:35:59;23.70;99.90
12446;DHT22;6287;50.984;7.022;2023-10-13T12:38:40;23.60;99.90
12446;DHT22;6287;50.984;7.022;2023-10-13T12:41:12;23.60;99.90
12446;DHT22;6287;50.984;7.022;2023-10-13T12:43:58;23.60;99.90
12446;DHT22;6287;50.984;7.022;2023-10-13T12:46:46;23.50;99.90
12446;DHT22;6287;50.984;7.022;2023-10-13T12:49:33;23.50;99.90
12446;DHT22;6287;50.984;7.022;2023-10-13T12:52:15;23.50;99.90
12446;DHT22;6287;50.984;7.022;2023-10-13T12:54:58;23.50;99.90
12446;DHT22;6287;50.984;7.022;2023-10-13T12:57:28;23.50;99.90
12446;DHT22;6287;50.984;7.022;2023-10-13T12:59:56;23.50;99.90
12446;DHT22;6287;50.984;7.022;2023-10-13T13:02:22;23.50;99.90
12446;DHT22;6287;50.984;7.022;2023-10-13T13:04:50;23.40;99.90
12446;DHT22;6287;50.984;7.022;2023-10-13T13:07:22;23.40;99.90
12446;DHT22;6287;50.984;7.022;2023-10-13T13:09:57;23.40;99.90
12446;DHT22;6287;50.984;7.022;2023-10-13T13:12:27;23.50;99.90
12446;DHT22;6287;50.984;7.022;2023-10-13T13:15:00;23.40;99.90
12446;DHT22;6287;50.984;7.022;2023-10-13T13:17:32;23.50;99.90
12446;DHT22;6287;50.984;7.022;2023-10-13T13:19:58;23.50;99.90
12446;DHT22;6287;50.984;7.022;2023-10-13T13:22:23;23.40;99.90
12446;DHT22;6287;50.984;7.022;2023-10-13T13:24:55;23.40;99.90
12446;DHT22;6287;50.984;7.022;2023-10-13T13:27:21;23.30;99.90
12446;DHT22;6287;50.984;7.022;2023-10-13T13:29:52;23.30;99.90
12446;DHT22;6287;50.984;7.022;2023-10-13T13:32:20;23.30;99.90
12446;DHT22;6287;50.984;7.022;2023-10-13T13:34:56;23.30;99.90
12446;DHT22;6287;50.984;7.022;2023-10-13T13:37:30;23.30;99.90
12446;DHT22;6287;50.984;7.022;2023-10-13T13:39:56;23.30;99.90
12446;DHT22;6287;50.984;7.022;2023-10-13T13:42:22;23.20;99.90
12446;DHT22;6287;50.984;7.022;2023-10-13T13:44:47;23.20;99.90
12446;DHT22;6287;50.984;7.022;2023-10-13T13:47:16;23.10;99.90
12446;DHT22;6287;50.984;7.022;2023-10-13T13:49:46;23.10;99.90
12446;DHT22;6287;50.984;7.022;2023-10-13T13:52:17;23.20;99.90
12446;DHT22;6287;50.984;7.022;2023-10-13T13:54:47;23.20;99.90
12446;DHT22;6287;50.984;7.022;2023-10-13T13:57:15;23.20;99.90
12446;DHT22;6287;50.984;7.022;2023-10-13T13:59:40;23.20;99.90
12446;DHT22;6287;50.984;7.022;2023-10-13T14:02:10;23.20;99.90
12446;DHT22;6287;50.984;7.022;2023-10-13T14:04:50;23.20;99.90
12446;DHT22;6287;50.984;7.022;2023-10-13T14:07:18;23.20;99.90
12446;DHT22;6287;50.984;7.022;2023-10-13T14:09:46;23.20;99.90
12446;DHT22;6287;50.984;7.022;2023-10-13T14:12:17;23.30;99.90
12446;DHT22;6287;50.984;7.022;2023-10-13T14:15:09;23.30;99.90
12446;DHT22;6287;50.984;7.022;2023-10-13T14:17:47;23.30;99.90
12446;DHT22;6287;50.984;7.022;2023-10-13T14:20:15;23.30;99.90
12446;DHT22;6287;50.984;7.022;2023-10-13T14:22:46;23.40;99.90
12446;DHT22;6287;50.984;7.022;2023-10-13T14:25:17;23.40;99.90
12446;DHT22;6287;50.984;7.022;2023-10-13T14:27:45;23.40;99.90
12446;DHT22;6287;50.984;7.022;2023-10-13T14:30:11;23.40;99.90
12446;DHT22;6287;50.984;7.022;2023-10-13T14:32:45;23.40;99.90
12446;DHT22;6287;50.984;7.022;2023-10-13T14:35:15;23.30;99.90
12446;DHT22;6287;50.984;7.022;2023-10-13T14:37:43;23.30;99.90
12446;DHT22;6287;50.984;7.022;2023-10-13T14:40:11;23.30;99.90
12446;DHT22;6287;50.984;7.022;2023-10-13T14:42:40;23.30;99.90
12446;DHT22;6287;50.984;7.022;2023-10-13T14:45:07;23.20;99.90
12446;DHT22;6287;50.984;7.022;2023-10-13T14:47:42;23.20;99.90
12446;DHT22;6287;50.984;7.022;2023-10-13T14:50:12;23.20;99.90
12446;DHT22;6287;50.984;7.022;2023-10-13T14:52:49;23.10;99.90
12446;DHT22;6287;50.984;7.022;2023-10-13T14:55:16;23.10;99.90
12446;DHT22;6287;50.984;7.022;2023-10-13T14:57:48;23.10;99.90
12446;DHT22;6287;50.984;7.022;2023-10-13T15:00:15;23.00;99.90
12446;DHT22;6287;50.984;7.022;2023-10-13T15:02:43;23.10;99.90
12446;DHT22;6287;50.984;7.022;2023-10-13T15:05:11;23.10;99.90
12446;DHT22;6287;50.984;7.022;2023-10-13T15:07:44;23.10;99.90
12446;DHT22;6287;50.984;7.022;2023-10-13T15:10:14;23.00;99.90
12446;DHT22;6287;50.984;7.022;2023-10-13T15:12:43;23.00;99.90
12446;DHT22;6287;50.984;7.022;2023-10-13T15:15:12;23.00;99.90
12446;DHT22;6287;50.984;7.022;2023-10-13T15:17:47;22.90;99.90
12446;DHT22;6287;50.984;7.022;2023-10-13T15:20:15;22.90;99.90
12446;DHT22;6287;50.984;7.022;2023-10-13T15:22:44;22.80;99.90
12446;DHT22;6287;50.984;7.022;2023-10-13T15:25:12;22.80;99.90
12446;DHT22;6287;50.984;7.022;2023-10-13T15:28:00;22.80;99.90
12446;DHT22;6287;50.984;7.022;2023-10-13T15:30:35;22.80;99.90
12446;DHT22;6287;50.984;7.022;2023-10-13T15:33:14;22.80;99.90
12446;DHT22;6287;50.984;7.022;2023-10-13T15:35:47;22.80;99.90
12446;DHT22;6287;50.984;7.022;2023-10-13T15:38:14;22.80;99.90
12446;DHT22;6287;50.984;7.022;2023-10-13T15:40:45;22.70;99.90
12446;DHT22;6287;50.984;7.022;2023-10-13T15:43:12;22.70;99.90
12446;DHT22;6287;50.984;7.022;2023-10-13T15:45:38;22.70;99.90
12446;DHT22;6287;50.984;7.022;2023-10-13T15:48:10;22.70;99.90
12446;DHT22;6287;50.984;7.022;2023-10-13T15:50:38;22.70;99.90
12446;DHT22;6287;50.984;7.022;2023-10-13T15:53:07;22.60;99.90
12446;DHT22;6287;50.984;7.022;2023-10-13T15:55:36;22.60;99.90
12446;DHT22;6287;50.984;7.022;2023-10-13T15:58:02;22.60;99.90
12446;DHT22;6287;50.984;7.022;2023-10-13T16:00:30;22.40;99.90
12446;DHT22;6287;50.984;7.022;2023-10-13T16:02:59;22.40;99.90
12446;DHT22;6287;50.984;7.022;2023-10-13T16:05:32;22.30;99.90
12446;DHT22;6287;50.984;7.022;2023-10-13T16:08:01;22.20;99.90
12446;DHT22;6287;50.984;7.022;2023-10-13T16:10:29;22.20;99.90
12446;DHT22;6287;50.984;7.022;2023-10-13T16:12:57;22.20;99.90
12446;DHT22;6287;50.984;7.022;2023-10-13T16:15:27;22.20;99.90
12446;DHT22;6287;50.984;7.022;2023-10-13T16:17:53;22.20;99.90
12446;DHT22;6287;50.984;7.022;2023-10-13T16:20:19;22.20;99.90
12446;DHT22;6287;50.984;7.022;2023-10-13T16:22:47;22.20;99.90
12446;DHT22;6287;50.984;7.022;2023-10-13T16:25:16;22.30;99.90
12446;DHT22;6287;50.984;7.022;2023-10-13T16:27:43;22.30;99.90
12446;DHT22;6287;50.984;7.022;2023-10-13T16:30:10;22.30;99.90
12446;DHT22;6287;50.984;7.022;2023-10-13T16:32:38;22.30;99.90
12446;DHT22;6287;50.984;7.022;2023-10-13T16:35:05;22.30;99.90
12446;DHT22;6287;50.984;7.022;2023-10-13T16:37:31;22.20;99.90
12446;DHT22;6287;50.984;7.022;2023-10-13T16:39:57;22.10;99.90
12446;DHT22;6287;50.984;7.022;2023-10-13T16:42:33;22.10;99.90
12446;DHT22;6287;50.984;7.022;2023-10-13T16:45:03;22.00;99.90